createdAt,value
2019-03-01T00:00:01.491Z,20.60
2019-03-01T00:02:29.293Z,23.90
2019-03-01T00:05:25.894Z,23.87
2019-03-01T00:08:11.218Z,25.63
2019-03-01T00:10:52.548Z,21.60
2019-03-01T00:13:26.063Z,22.77
2019-03-01T00:16:11.283Z,22.60
2019-03-01T00:18:53.931Z,21.37
2019-03-01T00:21:30.106Z,22.60
2019-03-01T00:24:03.204Z,22.57
2019-03-01T00:26:33.539Z,25.17
2019-03-01T00:29:22.553Z,24.47
2019-03-01T00:31:58.905Z,23.70
2019-03-01T00:34:38.038Z,21.97
2019-03-01T00:37:23.959Z,23.93
2019-03-01T00:40:09.359Z,26.23
2019-03-01T00:42:48.260Z,23.03
2019-03-01T00:45:14.790Z,24.03
2019-03-01T00:47:41.331Z,22.47
2019-03-01T00:50:08.661Z,26.50
2019-03-01T00:52:35.193Z,29.40
2019-03-01T00:55:01.819Z,25.60
2019-03-01T00:57:28.354Z,25.70
2019-03-01T00:59:54.963Z,25.87
2019-03-01T01:02:21.607Z,22.80
2019-03-01T01:04:48.263Z,26.50
2019-03-01T01:07:14.797Z,26.53
2019-03-01T01:09:41.342Z,25.63
2019-03-01T01:12:07.899Z,25.60
2019-03-01T01:14:34.438Z,22.20
2019-03-01T01:17:00.986Z,23.70
2019-03-01T01:19:27.611Z,25.90
2019-03-01T01:21:54.127Z,24.70
2019-03-01T01:24:20.675Z,24.13
2019-03-01T01:26:47.192Z,25.40
2019-03-01T01:29:13.851Z,25.83
2019-03-01T01:31:40.509Z,29.83
2019-03-01T01:34:07.113Z,23.77
2019-03-01T01:36:33.767Z,25.63
2019-03-01T01:39:00.372Z,25.40
2019-03-01T01:41:27.390Z,22.60
2019-03-01T01:43:54.146Z,25.23
2019-03-01T01:46:20.969Z,24.80
2019-03-01T01:48:47.513Z,24.97
2019-03-01T01:51:14.031Z,26.37
2019-03-01T01:53:40.582Z,32.33
2019-03-01T01:56:08.115Z,26.53
2019-03-01T01:58:34.652Z,25.27
2019-03-01T02:01:01.319Z,26.50
2019-03-01T02:03:27.890Z,27.87
2019-03-01T02:05:54.569Z,27.00
2019-03-01T02:08:21.119Z,26.00
2019-03-01T02:10:47.755Z,28.53
2019-03-01T02:13:14.298Z,28.50
2019-03-01T02:15:40.807Z,25.63
2019-03-01T02:18:07.342Z,28.33
2019-03-01T02:20:33.858Z,29.70
2019-03-01T02:23:00.399Z,31.37
2019-03-01T02:25:26.903Z,28.57
2019-03-01T02:27:53.441Z,30.27
2019-03-01T02:30:26.180Z,28.03
2019-03-01T02:32:52.819Z,29.80
2019-03-01T02:35:19.381Z,27.17
2019-03-01T02:37:45.926Z,30.17
2019-03-01T02:40:14.493Z,27.90
2019-03-01T02:42:41.135Z,30.90
2019-03-01T02:45:15.825Z,25.87
2019-03-01T02:47:42.377Z,28.97
2019-03-01T02:50:11.387Z,32.47
2019-03-01T02:52:38.097Z,26.97
2019-03-01T02:55:08.001Z,23.00
2019-03-01T02:57:34.886Z,27.00
2019-03-01T03:00:02.435Z,28.97
2019-03-01T03:02:29.033Z,25.43
2019-03-01T03:04:55.673Z,26.97
2019-03-01T03:07:26.887Z,27.90
2019-03-01T03:09:53.429Z,24.03
2019-03-01T03:12:19.944Z,26.53
2019-03-01T03:14:46.379Z,25.67
2019-03-01T03:17:13.096Z,28.67
2019-03-01T03:19:39.732Z,28.20
2019-03-01T03:22:06.244Z,27.90
2019-03-01T03:24:32.904Z,24.20
2019-03-01T03:26:59.617Z,26.30
2019-03-01T03:29:26.276Z,23.13
2019-03-01T03:31:52.883Z,29.53
2019-03-01T03:34:19.421Z,26.00
2019-03-01T03:36:45.951Z,28.63
2019-03-01T03:39:12.606Z,28.07
2019-03-01T03:41:39.619Z,23.27
2019-03-01T03:44:06.273Z,26.27
2019-03-01T03:46:32.782Z,29.83
2019-03-01T03:48:59.312Z,25.40
2019-03-01T03:51:25.829Z,26.07
2019-03-01T03:53:52.462Z,28.73
2019-03-01T03:56:19.097Z,29.93
2019-03-01T03:58:45.743Z,24.23
2019-03-01T04:01:12.450Z,27.40
2019-03-01T04:03:39.017Z,25.47
2019-03-01T04:06:05.603Z,25.50
2019-03-01T04:08:32.953Z,29.00
2019-03-01T04:10:59.572Z,30.00
2019-03-01T04:13:26.217Z,27.63
2019-03-01T04:15:52.746Z,24.40
2019-03-01T04:18:19.273Z,23.13
2019-03-01T04:20:45.821Z,23.80
2019-03-01T04:23:13.440Z,23.60
2019-03-01T04:25:40.186Z,26.43
2019-03-01T04:28:06.999Z,24.37
2019-03-01T04:30:33.523Z,25.33
2019-03-01T04:33:00.043Z,22.87
2019-03-01T04:35:28.297Z,25.07
2019-03-01T04:37:54.808Z,24.70
2019-03-01T04:40:21.462Z,27.33
2019-03-01T04:42:47.970Z,22.60
2019-03-01T04:45:16.136Z,25.37
2019-03-01T04:47:43.974Z,24.10
2019-03-01T04:50:11.599Z,23.53
2019-03-01T04:52:38.548Z,26.00
2019-03-01T04:55:09.202Z,23.93
2019-03-01T04:57:36.310Z,26.33
2019-03-01T05:00:06.872Z,18.70
2019-03-01T05:02:33.483Z,23.47
2019-03-01T05:05:00.324Z,22.73
2019-03-01T05:07:26.759Z,22.10
2019-03-01T05:09:53.422Z,23.53
2019-03-01T05:12:19.969Z,27.50
2019-03-01T05:14:46.487Z,26.00
2019-03-01T05:17:13.033Z,23.37
2019-03-01T05:19:39.550Z,25.83
2019-03-01T05:22:06.096Z,25.57
2019-03-01T05:24:32.620Z,26.53
2019-03-01T05:26:59.163Z,25.60
2019-03-01T05:29:27.388Z,21.63
2019-03-01T05:31:55.632Z,24.43
2019-03-01T05:34:22.148Z,27.63
2019-03-01T05:36:48.684Z,26.60
2019-03-01T05:39:15.193Z,31.00
2019-03-01T05:41:41.798Z,29.10
2019-03-01T05:44:08.326Z,31.33
2019-03-01T05:46:34.839Z,30.67
2019-03-01T05:49:01.487Z,31.17
2019-03-01T05:51:28.633Z,34.13
2019-03-01T05:53:55.274Z,29.10
2019-03-01T05:56:23.088Z,37.47
2019-03-01T05:59:10.403Z,36.23
2019-03-01T06:01:40.831Z,33.87
2019-03-01T06:04:14.492Z,39.57
2019-03-01T06:06:48.012Z,40.70
2019-03-01T06:09:33.457Z,39.83
2019-03-01T06:12:37.404Z,45.87
2019-03-01T06:15:24.896Z,48.40
2019-03-01T06:18:15.372Z,41.77
2019-03-01T06:20:48.681Z,43.00
2019-03-01T06:23:24.843Z,38.57
2019-03-01T06:26:07.460Z,31.37
2019-03-01T06:28:44.138Z,36.00
2019-03-01T06:31:14.573Z,43.97
2019-03-01T06:34:02.465Z,32.03
2019-03-01T06:36:32.924Z,36.33
2019-03-01T06:39:11.112Z,34.13
2019-03-01T06:42:03.561Z,34.80
2019-03-01T06:44:52.558Z,31.43
2019-03-01T06:47:25.939Z,34.20
2019-03-01T06:50:00.455Z,41.20
2019-03-01T06:52:26.990Z,38.73
2019-03-01T06:54:53.511Z,37.37
2019-03-01T06:57:20.373Z,35.97
2019-03-01T06:59:46.916Z,39.00
2019-03-01T07:02:17.979Z,38.93
2019-03-01T07:04:44.618Z,33.07
2019-03-01T07:07:11.127Z,36.87
2019-03-01T07:09:37.784Z,36.20
2019-03-01T07:12:04.398Z,36.93
2019-03-01T07:14:30.941Z,35.07
2019-03-01T07:16:57.451Z,32.93
2019-03-01T07:19:25.728Z,34.80
2019-03-01T07:21:52.239Z,38.30
2019-03-01T07:24:18.919Z,32.73
2019-03-01T07:26:45.808Z,28.63
2019-03-01T07:29:12.428Z,24.70
2019-03-01T07:31:38.954Z,31.43
2019-03-01T07:34:05.479Z,27.80
2019-03-01T07:36:32.087Z,25.23
2019-03-01T07:39:00.339Z,24.07
2019-03-01T07:41:27.536Z,20.90
2019-03-01T07:43:54.071Z,24.27
2019-03-01T07:46:20.583Z,21.20
2019-03-01T07:48:47.123Z,21.80
2019-03-01T07:51:13.704Z,19.03
2019-03-01T07:53:42.006Z,22.17
2019-03-01T07:56:08.652Z,30.60
2019-03-01T07:58:35.294Z,13.87
2019-03-01T08:01:01.848Z,19.90
2019-03-01T08:03:28.573Z,17.23
2019-03-01T08:05:55.087Z,18.80
2019-03-01T08:08:21.737Z,16.43
2019-03-01T08:10:48.354Z,17.43
2019-03-01T08:13:17.698Z,13.47
2019-03-01T08:15:45.024Z,14.23
2019-03-01T08:18:11.743Z,15.60
2019-03-01T08:20:38.399Z,17.20
2019-03-01T08:23:05.006Z,15.23
2019-03-01T08:25:31.646Z,10.40
2019-03-01T08:27:58.372Z,9.90
2019-03-01T08:30:25.018Z,8.50
2019-03-01T08:32:51.542Z,10.67
2019-03-01T08:35:18.183Z,9.30
2019-03-01T08:37:45.904Z,11.40
2019-03-01T08:40:16.875Z,12.47
2019-03-01T08:42:43.519Z,7.90
2019-03-01T08:45:15.183Z,9.03
2019-03-01T08:47:41.696Z,7.37
2019-03-01T08:50:13.413Z,6.67
2019-03-01T08:52:40.450Z,8.40
2019-03-01T08:55:10.667Z,7.43
2019-03-01T08:57:43.952Z,8.47
2019-03-01T09:00:15.220Z,7.97
2019-03-01T09:02:42.242Z,6.10
2019-03-01T09:05:10.686Z,8.50
2019-03-01T09:07:37.193Z,7.70
2019-03-01T09:10:07.652Z,6.43
2019-03-01T09:12:34.263Z,6.40
2019-03-01T09:15:00.802Z,9.00
2019-03-01T09:17:27.525Z,7.67
2019-03-01T09:19:57.155Z,12.30
2019-03-01T09:22:24.134Z,9.93
2019-03-01T09:24:51.036Z,7.83
2019-03-01T09:27:17.649Z,7.70
2019-03-01T09:29:44.398Z,8.43
2019-03-01T09:32:11.123Z,8.67
2019-03-01T09:34:37.793Z,11.10
2019-03-01T09:37:05.139Z,9.20
2019-03-01T09:39:32.666Z,7.97
2019-03-01T09:42:04.287Z,6.93
2019-03-01T09:44:27.855Z,5.93
2019-03-01T09:46:54.365Z,6.20
2019-03-01T09:49:21.506Z,10.87
2019-03-01T09:51:50.079Z,7.93
2019-03-01T09:54:16.556Z,7.30
2019-03-01T09:56:43.103Z,8.03
2019-03-01T09:59:09.632Z,6.80
2019-03-01T10:01:36.170Z,11.27
2019-03-01T10:04:03.094Z,8.03
2019-03-01T10:06:37.847Z,7.70
2019-03-01T10:08:58.040Z,8.83
2019-03-01T10:11:24.591Z,7.00
2019-03-01T10:13:51.106Z,7.40
2019-03-01T10:16:17.635Z,6.90
2019-03-01T10:18:44.155Z,6.93
2019-03-01T10:21:10.694Z,6.33
2019-03-01T10:23:37.221Z,6.30
2019-03-01T10:26:04.887Z,6.60
2019-03-01T10:28:32.203Z,7.00
2019-03-01T10:30:58.955Z,7.90
2019-03-01T10:33:25.485Z,7.20
2019-03-01T10:35:52.232Z,9.60
2019-03-01T10:38:18.975Z,10.00
2019-03-01T10:40:45.516Z,7.10
2019-03-01T10:43:12.037Z,10.80
2019-03-01T10:45:38.680Z,6.43
2019-03-01T10:48:05.294Z,9.83
2019-03-01T10:50:31.826Z,6.70
2019-03-01T10:52:58.459Z,6.90
2019-03-01T10:55:24.982Z,9.00
2019-03-01T10:57:51.601Z,7.60
2019-03-01T11:00:28.684Z,8.40
2019-03-01T11:02:56.497Z,6.23
2019-03-01T11:05:23.918Z,7.67
2019-03-01T11:07:51.856Z,8.73
2019-03-01T11:10:27.627Z,6.63
2019-03-01T11:12:54.171Z,8.03
2019-03-01T11:15:20.895Z,7.80
2019-03-01T11:17:47.433Z,11.83
2019-03-01T11:20:15.809Z,8.50
2019-03-01T11:22:42.546Z,8.00
2019-03-01T11:25:11.358Z,7.23
2019-03-01T11:27:37.891Z,10.43
2019-03-01T11:30:14.155Z,7.73
2019-03-01T11:32:40.811Z,10.87
2019-03-01T11:35:07.760Z,8.13
2019-03-01T11:37:34.294Z,9.07
2019-03-01T11:40:01.032Z,7.70
2019-03-01T11:42:27.570Z,10.53
2019-03-01T11:44:54.688Z,10.03
2019-03-01T11:47:21.337Z,10.13
2019-03-01T11:49:47.860Z,9.03
2019-03-01T11:52:14.432Z,11.13
2019-03-01T11:54:41.142Z,10.30
2019-03-01T11:57:07.884Z,8.50
2019-03-01T11:59:34.813Z,9.40
2019-03-01T12:02:01.460Z,7.83
2019-03-01T12:04:27.959Z,7.37
2019-03-01T12:06:55.547Z,12.13
2019-03-01T12:09:22.023Z,10.57
2019-03-01T12:11:49.578Z,8.20
2019-03-01T12:14:16.091Z,7.20
2019-03-01T12:16:42.637Z,9.27
2019-03-01T12:19:09.256Z,6.50
2019-03-01T12:21:35.894Z,7.07
2019-03-01T12:24:02.414Z,6.13
2019-03-01T12:26:28.959Z,6.90
2019-03-01T12:28:55.767Z,9.63
2019-03-01T12:31:22.275Z,10.20
2019-03-01T12:33:48.916Z,6.33
2019-03-01T12:36:15.552Z,6.03
2019-03-01T12:38:42.193Z,6.37
2019-03-01T12:41:08.804Z,6.33
2019-03-01T12:43:35.447Z,11.00
2019-03-01T12:46:01.960Z,10.23
2019-03-01T12:48:28.507Z,8.33
2019-03-01T12:50:55.127Z,7.27
2019-03-01T12:53:21.669Z,8.37
2019-03-01T12:55:48.301Z,8.20
2019-03-01T12:58:19.450Z,10.20
2019-03-01T13:00:43.428Z,7.10
2019-03-01T13:03:10.097Z,8.20
2019-03-01T13:05:36.589Z,10.87
2019-03-01T13:08:03.540Z,7.47
2019-03-01T13:10:38.802Z,7.70
2019-03-01T13:13:07.942Z,7.47
2019-03-01T13:15:32.712Z,7.37
2019-03-01T13:17:59.372Z,7.37
2019-03-01T13:20:25.983Z,8.00
2019-03-01T13:22:52.633Z,10.03
2019-03-01T13:25:19.359Z,9.47
2019-03-01T13:27:48.897Z,9.60
2019-03-01T13:30:16.490Z,8.47
2019-03-01T13:32:42.996Z,10.30
2019-03-01T13:35:12.522Z,9.30
2019-03-01T13:37:39.504Z,11.43
2019-03-01T13:40:11.515Z,8.43
2019-03-01T13:42:38.087Z,8.20
2019-03-01T13:45:08.397Z,9.47
2019-03-01T13:47:34.966Z,5.47
2019-03-01T13:50:05.628Z,6.87
2019-03-01T13:52:31.031Z,8.43
2019-03-01T13:54:57.881Z,7.93
2019-03-01T13:57:24.618Z,8.60
2019-03-01T13:59:51.302Z,7.90
2019-03-01T14:02:17.934Z,8.90
2019-03-01T14:04:45.165Z,8.70
2019-03-01T14:07:13.564Z,8.60
2019-03-01T14:09:40.122Z,6.60
2019-03-01T14:12:06.705Z,8.03
2019-03-01T14:14:33.319Z,6.03
2019-03-01T14:17:00.057Z,6.73
2019-03-01T14:19:28.329Z,8.87
2019-03-01T14:21:55.029Z,6.60
2019-03-01T14:24:21.511Z,8.87
2019-03-01T14:26:50.650Z,6.90
2019-03-01T14:29:16.984Z,7.90
2019-03-01T14:31:43.801Z,7.30
2019-03-01T14:34:11.626Z,9.23
2019-03-01T14:36:39.880Z,9.20
2019-03-01T14:39:11.168Z,8.00
2019-03-01T14:41:38.213Z,8.83
2019-03-01T14:44:05.389Z,9.20
2019-03-01T14:46:32.044Z,8.00
2019-03-01T14:48:58.638Z,10.87
2019-03-01T14:51:25.257Z,8.07
2019-03-01T14:53:51.843Z,10.90
2019-03-01T14:56:22.171Z,4.50
2019-03-01T14:58:58.884Z,7.10
2019-03-01T15:01:32.708Z,7.50
2019-03-01T15:03:59.371Z,8.50
2019-03-01T15:06:26.000Z,8.17
2019-03-01T15:08:52.688Z,11.03
2019-03-01T15:11:19.404Z,7.57
2019-03-01T15:13:45.950Z,8.10
2019-03-01T15:16:12.516Z,8.73
2019-03-01T15:18:40.285Z,8.60
2019-03-01T15:21:07.811Z,7.63
2019-03-01T15:23:36.077Z,9.47
2019-03-01T15:26:03.398Z,9.57
2019-03-01T15:28:29.915Z,10.70
2019-03-01T15:30:57.258Z,9.53
2019-03-01T15:33:24.932Z,8.30
2019-03-01T15:35:51.451Z,8.53
2019-03-01T15:38:18.012Z,8.27
2019-03-01T15:40:44.521Z,7.23
2019-03-01T15:43:11.436Z,7.47
2019-03-01T15:45:40.017Z,14.30
2019-03-01T15:48:07.527Z,7.00
2019-03-01T15:50:34.296Z,9.77
2019-03-01T15:53:02.546Z,7.90
2019-03-01T15:55:30.109Z,5.60
2019-03-01T15:57:57.337Z,7.63
2019-03-01T16:00:25.668Z,9.27
2019-03-01T16:02:53.170Z,7.93
2019-03-01T16:05:20.672Z,7.87
2019-03-01T16:07:47.358Z,8.93
2019-03-01T16:10:19.387Z,8.23
2019-03-01T16:12:46.352Z,6.30
2019-03-01T16:15:16.976Z,12.43
2019-03-01T16:17:43.636Z,9.30
2019-03-01T16:20:15.703Z,8.13
2019-03-01T16:22:43.987Z,7.47
2019-03-01T16:25:17.249Z,7.83
2019-03-01T16:27:43.931Z,7.13
2019-03-01T16:30:17.370Z,9.73
2019-03-01T16:32:49.642Z,9.07
2019-03-01T16:35:19.388Z,8.80
2019-03-01T16:38:01.313Z,7.87
2019-03-01T16:40:26.812Z,11.47
2019-03-01T16:42:54.711Z,8.03
2019-03-01T16:45:21.984Z,9.13
2019-03-01T16:47:48.535Z,11.27
2019-03-01T16:50:16.115Z,9.67
2019-03-01T16:52:42.662Z,7.67
2019-03-01T16:55:18.896Z,10.00
2019-03-01T16:57:48.625Z,13.73
2019-03-01T17:00:19.395Z,13.40
2019-03-01T17:02:48.640Z,10.93
2019-03-01T17:05:15.140Z,11.00
2019-03-01T17:07:41.911Z,10.60
2019-03-01T17:10:18.143Z,11.60
2019-03-01T17:12:44.807Z,6.27
2019-03-01T17:15:14.680Z,6.80
2019-03-01T17:17:42.693Z,7.03
2019-03-01T17:20:10.107Z,7.30
2019-03-01T17:22:36.793Z,7.03
2019-03-01T17:25:07.115Z,8.30
2019-03-01T17:27:33.714Z,9.17
2019-03-01T17:30:00.388Z,9.30
2019-03-01T17:32:27.090Z,11.20
2019-03-01T17:34:53.742Z,12.57
2019-03-01T17:37:20.371Z,8.77
2019-03-01T17:39:47.246Z,7.27
2019-03-01T17:42:14.018Z,9.17
2019-03-01T17:44:44.529Z,9.37
2019-03-01T17:47:10.797Z,8.87
2019-03-01T17:49:37.516Z,11.40
2019-03-01T17:52:04.777Z,14.90
2019-03-01T17:54:31.940Z,11.80
2019-03-01T17:56:58.685Z,12.67
2019-03-01T17:59:25.300Z,9.07
2019-03-01T18:01:51.849Z,12.37
2019-03-01T18:04:18.363Z,9.83
2019-03-01T18:06:44.920Z,10.70
2019-03-01T18:09:13.316Z,8.20
2019-03-01T18:11:40.717Z,8.50
2019-03-01T18:14:08.135Z,11.60
2019-03-01T18:16:34.751Z,8.97
2019-03-01T18:19:01.312Z,9.77
2019-03-01T18:21:27.831Z,7.73
2019-03-01T18:23:54.339Z,13.70
2019-03-01T18:26:22.913Z,9.13
2019-03-01T18:28:49.227Z,11.60
2019-03-01T18:31:15.829Z,10.47
2019-03-01T18:33:42.760Z,10.07
2019-03-01T18:36:09.308Z,10.50
2019-03-01T18:38:35.918Z,9.10
2019-03-01T18:41:02.682Z,8.07
2019-03-01T18:43:29.603Z,9.73
2019-03-01T18:45:56.452Z,8.33
2019-03-01T18:48:23.255Z,7.97
2019-03-01T18:50:51.636Z,8.70
2019-03-01T18:53:18.164Z,11.07
2019-03-01T18:55:44.820Z,12.87
2019-03-01T18:58:13.945Z,8.00
2019-03-01T19:00:44.062Z,14.53
2019-03-01T19:03:12.280Z,11.67
2019-03-01T19:05:40.252Z,11.20
2019-03-01T19:08:07.406Z,8.90
2019-03-01T19:10:35.127Z,15.57
2019-03-01T19:13:01.778Z,9.87
2019-03-01T19:15:28.635Z,5.87
2019-03-01T19:17:56.357Z,11.77
2019-03-01T19:20:43.768Z,11.83
2019-03-01T19:23:10.260Z,11.57
2019-03-01T19:25:36.722Z,9.40
2019-03-01T19:28:03.243Z,10.37
2019-03-01T19:30:29.866Z,7.73
2019-03-01T19:32:58.830Z,6.47
2019-03-01T19:35:28.774Z,10.00
2019-03-01T19:37:53.050Z,6.63
2019-03-01T19:40:21.011Z,9.47
2019-03-01T19:42:47.612Z,10.90
2019-03-01T19:45:15.977Z,13.43
2019-03-01T19:47:42.596Z,12.50
2019-03-01T19:50:14.213Z,10.30
2019-03-01T19:52:43.489Z,9.63
2019-03-01T19:55:11.699Z,10.13
2019-03-01T19:57:38.500Z,9.03
2019-03-01T20:00:14.265Z,10.23
2019-03-01T20:02:40.875Z,7.70
2019-03-01T20:05:10.644Z,13.93
2019-03-01T20:07:37.274Z,11.00
2019-03-01T20:10:07.907Z,8.67
2019-03-01T20:12:36.944Z,8.10
2019-03-01T20:15:09.733Z,7.13
2019-03-01T20:17:44.078Z,11.80
2019-03-01T20:20:08.079Z,12.20
2019-03-01T20:22:34.834Z,6.17
2019-03-01T20:25:01.343Z,7.93
2019-03-01T20:27:28.001Z,9.23
2019-03-01T20:29:54.587Z,11.27
2019-03-01T20:32:21.144Z,10.07
2019-03-01T20:34:47.790Z,11.00
2019-03-01T20:37:15.400Z,12.60
2019-03-01T20:39:42.138Z,7.20
2019-03-01T20:42:08.792Z,9.33
2019-03-01T20:44:35.372Z,13.40
2019-03-01T20:47:02.041Z,8.13
2019-03-01T20:49:28.600Z,8.60
2019-03-01T20:51:55.350Z,10.13
2019-03-01T20:54:25.681Z,7.87
2019-03-01T20:56:51.601Z,6.80
2019-03-01T20:59:19.047Z,10.70
2019-03-01T21:01:45.639Z,10.33
2019-03-01T21:04:12.202Z,15.20
2019-03-01T21:06:40.606Z,11.57
2019-03-01T21:09:07.306Z,7.60
2019-03-01T21:11:33.956Z,7.73
2019-03-01T21:14:00.570Z,9.80
2019-03-01T21:16:27.232Z,10.93
2019-03-01T21:18:53.738Z,11.13
2019-03-01T21:21:20.310Z,11.63
2019-03-01T21:23:50.710Z,10.30
2019-03-01T21:26:16.887Z,11.83
2019-03-01T21:28:44.448Z,10.60
2019-03-01T21:31:11.205Z,9.77
2019-03-01T21:33:37.865Z,10.37
2019-03-01T21:36:04.478Z,10.50
2019-03-01T21:38:31.603Z,9.20
2019-03-01T21:40:58.362Z,9.53
2019-03-01T21:43:24.931Z,8.80
2019-03-01T21:45:51.900Z,12.97
2019-03-01T21:48:18.692Z,14.53
2019-03-01T21:50:45.291Z,9.70
2019-03-01T21:53:12.189Z,12.67
2019-03-01T21:55:38.968Z,11.97
2019-03-01T21:58:06.605Z,10.00
2019-03-01T22:00:34.889Z,14.57
2019-03-01T22:03:03.755Z,11.07
2019-03-01T22:05:30.965Z,18.13
2019-03-01T22:07:57.755Z,11.03
2019-03-01T22:10:24.377Z,13.17
2019-03-01T22:12:51.404Z,10.77
2019-03-01T22:15:21.675Z,13.70
2019-03-01T22:17:49.694Z,14.73
2019-03-01T22:20:16.461Z,11.40
2019-03-01T22:22:44.720Z,14.40
2019-03-01T22:25:13.923Z,15.17
2019-03-01T22:27:41.789Z,11.73
2019-03-01T22:30:12.820Z,11.77
2019-03-01T22:32:42.310Z,16.80
2019-03-01T22:35:09.647Z,13.33
2019-03-01T22:37:37.988Z,14.87
2019-03-01T22:40:07.935Z,12.30
2019-03-01T22:42:35.452Z,11.47
2019-03-01T22:45:04.326Z,12.50
2019-03-01T22:47:32.371Z,15.57
2019-03-01T22:50:00.161Z,11.67
2019-03-01T22:52:30.364Z,14.23
2019-03-01T22:54:57.707Z,14.37
2019-03-01T22:57:26.019Z,10.03
2019-03-01T22:59:53.000Z,11.87
2019-03-01T23:02:20.192Z,14.77
2019-03-01T23:04:46.721Z,14.07
2019-03-01T23:07:14.983Z,15.57
2019-03-01T23:09:46.439Z,14.00
2019-03-01T23:12:11.483Z,14.03
2019-03-01T23:14:38.121Z,14.43
2019-03-01T23:17:04.812Z,13.90
2019-03-01T23:19:31.323Z,10.70
2019-03-01T23:21:57.829Z,15.10
2019-03-01T23:24:24.398Z,11.87
2019-03-01T23:26:53.651Z,15.00
2019-03-01T23:29:20.063Z,12.67
2019-03-01T23:31:46.704Z,16.40
2019-03-01T23:34:13.304Z,11.70
2019-03-01T23:36:39.841Z,12.37
2019-03-01T23:39:06.709Z,19.83
2019-03-01T23:41:33.222Z,11.63
2019-03-01T23:44:02.732Z,13.43
2019-03-01T23:46:28.549Z,12.77
2019-03-01T23:48:55.926Z,16.43
2019-03-01T23:51:22.451Z,14.33
2019-03-01T23:53:49.029Z,11.80
2019-03-01T23:56:15.650Z,16.93
2019-03-01T23:58:42.813Z,13.17
